Time;durP1;ratioP1;P1;durP2;ratioP2;P2;SDS_P1;SDS_P2;PMS_P1;PMS_P2;Temp;Humidity;BMP_temperature;BMP_pressure;BME280_temperature;BME280_humidity;BME280_pressure;Samples;Min_cycle;Max_cycle;Signal;HPM_P1;HPM_P2
2022/12/02 00:02:24;;;;;;;498.73;465.27;;;4.40;35.90;;;;;;5091549;28;20415;-72
2022/12/02 00:04:55;;;;;;;561.90;523.33;;;4.40;35.80;;;;;;5092543;28;20488;-72
2022/12/02 00:07:22;;;;;;;572.77;531.33;;;4.30;35.90;;;;;;5095964;28;20414;-72
2022/12/02 00:09:47;;;;;;;318.60;291.67;;;4.20;37.00;;;;;;5077576;28;20465;-72
2022/12/02 00:12:19;;;;;;;469.77;439.00;;;4.30;37.60;;;;;;5096780;28;20426;-72
2022/12/02 00:14:45;;;;;;;378.10;352.23;;;4.30;36.40;;;;;;5095651;28;20205;-71
2022/12/02 00:17:11;;;;;;;301.50;274.40;;;4.30;36.40;;;;;;5095685;28;20425;-71
2022/12/02 00:19:36;;;;;;;292.33;268.97;;;4.30;36.30;;;;;;5095526;28;20481;-71
2022/12/02 00:22:02;;;;;;;607.40;564.53;;;4.40;35.60;;;;;;5095354;28;20183;-71
2022/12/02 00:24:27;;;;;;;659.37;613.67;;;4.40;34.70;;;;;;5077361;28;20185;-71
2022/12/02 00:26:53;;;;;;;681.87;631.13;;;4.40;35.90;;;;;;5095535;28;20175;-71
2022/12/02 00:29:19;;;;;;;611.07;568.03;;;4.40;35.90;;;;;;5095471;28;20207;-71
2022/12/02 00:31:44;;;;;;;458.00;425.37;;;4.40;35.70;;;;;;5095289;28;20185;-71
2022/12/02 00:34:10;;;;;;;415.63;386.23;;;4.40;35.70;;;;;;5095667;28;20561;-71
2022/12/02 00:36:35;;;;;;;469.00;435.97;;;4.40;36.20;;;;;;5077112;28;20547;-70
2022/12/02 00:39:01;;;;;;;594.23;553.50;;;4.30;35.50;;;;;;5095333;28;20224;-71
2022/12/02 00:41:27;;;;;;;379.97;352.13;;;4.40;36.10;;;;;;5095221;28;20172;-70
2022/12/02 00:46:37;;;;;;;398.83;366.97;;;4.30;36.10;;;;;;5095224;28;20189;-70
2022/12/02 00:49:10;;;;;;;533.83;495.17;;;4.30;35.70;;;;;;5095202;28;20442;-70
2022/12/02 00:51:36;;;;;;;433.40;403.43;;;4.20;36.10;;;;;;5105593;28;20432;-70
2022/12/02 00:54:03;;;;;;;598.20;556.53;;;4.20;36.60;;;;;;5095192;28;21054;-70
2022/12/02 00:56:29;;;;;;;451.43;417.90;;;4.20;36.50;;;;;;5095081;28;20445;-70
2022/12/02 00:58:54;;;;;;;612.33;567.57;;;4.20;37.00;;;;;;5094944;28;20770;-70
2022/12/02 01:01:20;;;;;;;497.93;464.20;;;4.10;36.00;;;;;;5095021;28;20437;-70
2022/12/02 01:03:46;;;;;;;664.30;616.20;;;4.20;37.50;;;;;;5095004;28;20202;-70
2022/12/02 01:06:13;;;;;;;494.80;459.97;;;4.30;36.30;;;;;;5109659;28;20439;-70
2022/12/02 01:08:38;;;;;;;678.60;631.87;;;4.20;35.80;;;;;;5115777;28;20456;-70
2022/12/02 01:11:04;;;;;;;604.93;563.03;;;4.20;36.20;;;;;;5115285;28;20409;-70
2022/12/02 01:13:29;;;;;;;559.53;519.23;;;4.20;36.40;;;;;;5096163;28;20188;-70
2022/12/02 01:15:55;;;;;;;577.10;536.60;;;4.10;36.50;;;;;;5114643;28;20175;-69
2022/12/02 01:18:21;;;;;;;551.60;510.20;;;4.00;37.30;;;;;;5114940;28;20183;-70
2022/12/02 01:20:46;;;;;;;553.90;517.80;;;4.00;37.20;;;;;;5114906;28;20569;-69
2022/12/02 01:23:12;;;;;;;563.77;524.53;;;4.10;37.40;;;;;;5115285;28;20175;-70
2022/12/02 01:25:39;;;;;;;474.67;440.40;;;4.20;37.50;;;;;;5114504;28;20216;-70
2022/12/02 01:28:05;;;;;;;745.43;692.43;;;4.30;36.30;;;;;;5113956;28;20643;-70
2022/12/02 01:30:30;;;;;;;609.60;564.70;;;4.30;36.20;;;;;;5104361;28;20457;-70
2022/12/02 01:32:56;;;;;;;227.33;206.77;;;4.30;36.00;;;;;;5094061;28;20413;-70
2022/12/02 01:35:22;;;;;;;493.97;459.13;;;4.40;35.90;;;;;;5094428;28;20208;-70
2022/12/02 01:37:47;;;;;;;364.70;334.50;;;4.40;35.60;;;;;;5094299;28;20173;-70
2022/12/02 01:40:14;;;;;;;682.07;635.27;;;4.30;36.10;;;;;;5094052;28;20223;-70
2022/12/02 01:42:40;;;;;;;681.33;632.87;;;4.30;36.20;;;;;;5093810;28;20603;-70
2022/12/02 01:45:07;;;;;;;227.03;205.13;;;4.20;36.60;;;;;;5094074;28;20418;-70
2022/12/02 01:47:33;;;;;;;552.13;511.60;;;4.30;36.30;;;;;;5094075;28;20786;-69
2022/12/02 01:49:59;;;;;;;334.77;308.03;;;4.20;35.40;;;;;;5097671;28;20455;-69
2022/12/02 01:52:25;;;;;;;392.60;363.50;;;4.20;36.60;;;;;;5114220;28;20508;-69
2022/12/02 01:54:51;;;;;;;336.60;309.67;;;4.30;35.90;;;;;;5114212;28;20195;-69
2022/12/02 01:57:20;;;;;;;158.20;137.53;;;4.40;35.70;;;;;;5114333;28;20469;-69
2022/12/02 01:59:46;;;;;;;200.50;180.73;;;4.30;35.00;;;;;;5113798;28;20457;-69
2022/12/02 02:02:29;;;;;;;259.70;236.80;;;4.20;36.30;;;;;;5096291;28;20908;-69
2022/12/02 02:04:59;;;;;;;391.10;361.37;;;4.10;37.00;;;;;;5114651;28;20410;-70
2022/12/02 02:07:25;;;;;;;609.47;566.80;;;4.10;37.40;;;;;;5114846;28;20792;-70
2022/12/02 02:09:51;;;;;;;580.23;537.80;;;4.20;37.30;;;;;;5095681;28;20467;-69
2022/12/02 02:12:17;;;;;;;511.63;473.90;;;4.10;37.20;;;;;;5114519;28;20752;-69
2022/12/02 02:14:43;;;;;;;426.73;397.47;;;3.90;37.20;;;;;;5098854;28;20470;-69
2022/12/02 02:17:08;;;;;;;438.43;408.53;;;3.90;37.90;;;;;;5094126;28;20171;-70
2022/12/02 02:19:35;;;;;;;318.80;294.37;;;3.90;37.20;;;;;;5093842;28;20979;-69
2022/12/02 02:22:06;;;;;;;490.13;455.43;;;4.00;38.30;;;;;;5093944;28;20172;-70
2022/12/02 02:24:31;;;;;;;435.13;402.93;;;3.90;37.80;;;;;;5094231;28;20420;-69
2022/12/02 02:26:57;;;;;;;310.47;286.27;;;3.90;37.80;;;;;;5093580;28;20406;-70
2022/12/02 02:29:23;;;;;;;447.33;415.27;;;3.90;38.00;;;;;;5076294;28;20211;-69
2022/12/02 02:31:48;;;;;;;645.63;598.27;;;3.90;37.80;;;;;;5093658;28;20177;-70
2022/12/02 02:34:14;;;;;;;593.63;549.80;;;3.90;39.30;;;;;;5093543;28;20237;-69
2022/12/02 02:36:39;;;;;;;593.80;549.63;;;3.80;39.30;;;;;;5093642;28;20538;-70
2022/12/02 02:39:05;;;;;;;408.20;377.23;;;3.90;39.20;;;;;;5106349;28;20726;-69
2022/12/02 02:41:31;;;;;;;652.60;606.13;;;3.90;39.40;;;;;;5113593;28;20173;-69
2022/12/02 02:43:56;;;;;;;486.20;448.77;;;3.80;40.20;;;;;;5095021;28;20682;-70
2022/12/02 02:46:22;;;;;;;543.30;505.13;;;3.80;40.00;;;;;;5113774;28;20188;-70
2022/12/02 02:48:49;;;;;;;469.33;435.60;;;3.80;40.60;;;;;;5112217;28;20677;-69
2022/12/02 02:51:15;;;;;;;458.80;423.63;;;3.90;40.40;;;;;;5092870;28;20195;-70
2022/12/02 02:53:42;;;;;;;490.43;451.57;;;3.90;41.20;;;;;;5092739;28;20654;-70
2022/12/02 02:56:09;;;;;;;390.00;358.47;;;3.90;40.00;;;;;;5074778;28;20508;-69
2022/12/02 02:58:34;;;;;;;373.77;344.93;;;3.90;40.10;;;;;;5101374;28;20496;-70
2022/12/02 03:01:21;;;;;;;579.93;541.03;;;4.00;40.90;;;;;;5094877;28;20453;-71
2022/12/02 03:03:52;;;;;;;425.40;392.30;;;3.90;40.50;;;;;;5113076;28;20620;-69
2022/12/02 03:06:18;;;;;;;595.87;554.13;;;4.00;41.00;;;;;;5113873;28;20398;-70
2022/12/02 03:08:46;;;;;;;623.97;578.77;;;3.90;40.10;;;;;;5139328;22;20889;-68
2022/12/02 03:11:12;;;;;;;581.80;539.10;;;3.80;40.60;;;;;;5059082;28;20217;-67
2022/12/02 03:13:40;;;;;;;524.43;487.10;;;3.70;41.00;;;;;;5092359;28;20405;-69
2022/12/02 03:16:09;;;;;;;466.40;431.90;;;3.70;41.10;;;;;;5092802;28;20422;-69
2022/12/02 03:18:35;;;;;;;362.33;333.70;;;3.70;41.50;;;;;;5092039;28;20425;-69
2022/12/02 03:21:01;;;;;;;537.87;497.20;;;3.70;42.10;;;;;;5092356;28;20227;-70
2022/12/02 03:23:29;;;;;;;592.63;548.50;;;3.70;42.60;;;;;;5092078;28;20449;-69
2022/12/02 03:25:55;;;;;;;507.95;472.13;;;3.80;42.20;;;;;;5092174;28;20785;-69
2022/12/02 03:28:21;;;;;;;444.97;409.80;;;3.80;41.30;;;;;;5091948;28;20270;-68
2022/12/02 03:30:47;;;;;;;334.30;310.20;;;3.70;42.50;;;;;;5092144;28;20429;-69
2022/12/02 03:33:13;;;;;;;517.53;479.27;;;3.80;42.10;;;;;;5084524;28;21084;-69
2022/12/02 03:35:38;;;;;;;461.70;426.27;;;3.80;41.00;;;;;;5071977;28;20212;-69
2022/12/02 03:38:04;;;;;;;669.17;619.93;;;3.80;42.10;;;;;;5071783;28;20615;-69
2022/12/02 03:40:30;;;;;;;595.60;550.63;;;3.80;42.00;;;;;;5071833;28;20423;-68
2022/12/02 03:42:55;;;;;;;569.30;526.83;;;3.70;42.10;;;;;;5071739;28;20202;-69
2022/12/02 03:45:21;;;;;;;433.60;398.90;;;3.70;42.10;;;;;;5071745;28;20341;-68
2022/12/02 03:47:47;;;;;;;447.80;412.97;;;3.70;42.90;;;;;;5071808;28;20265;-69
2022/12/02 03:50:13;;;;;;;426.10;393.83;;;3.70;42.60;;;;;;5071761;28;20515;-68
2022/12/02 03:52:39;;;;;;;576.97;534.20;;;3.70;43.10;;;;;;5071332;28;20172;-69
2022/12/02 03:55:06;;;;;;;629.67;580.90;;;3.60;42.90;;;;;;5071596;28;20210;-69
2022/12/02 03:57:33;;;;;;;463.33;429.42;;;3.60;43.30;;;;;;5071844;28;20961;-70
2022/12/02 03:59:59;;;;;;;357.17;328.90;;;3.70;43.10;;;;;;5071443;28;20749;-69
2022/12/02 04:02:25;;;;;;;618.00;572.50;;;3.70;42.50;;;;;;5071367;28;20409;-69
2022/12/02 04:04:50;;;;;;;574.77;530.97;;;3.60;42.20;;;;;;5053514;28;20433;-69
2022/12/02 04:07:16;;;;;;;534.07;495.37;;;3.60;42.80;;;;;;5053720;28;20469;-68
2022/12/02 04:09:41;;;;;;;372.67;342.57;;;3.60;43.50;;;;;;5071348;28;20224;-68
2022/12/02 04:12:07;;;;;;;550.83;508.97;;;3.60;43.30;;;;;;5071270;28;20179;-69
2022/12/02 04:14:33;;;;;;;526.73;488.10;;;3.60;42.80;;;;;;5071311;28;20202;-69
2022/12/02 04:16:58;;;;;;;537.30;496.50;;;3.60;43.70;;;;;;5071491;28;20181;-69
2022/12/02 04:19:24;;;;;;;530.23;492.10;;;3.60;43.30;;;;;;5071675;28;20199;-69
2022/12/02 04:21:49;;;;;;;476.27;439.60;;;3.50;43.10;;;;;;5053771;28;20649;-69
2022/12/02 04:24:15;;;;;;;628.47;582.47;;;3.50;43.60;;;;;;5071479;28;20690;-69
2022/12/02 04:26:40;;;;;;;551.77;511.70;;;3.60;44.10;;;;;;5071403;28;20181;-69
2022/12/02 04:29:06;;;;;;;464.30;429.40;;;3.60;43.30;;;;;;5071298;28;20212;-69
2022/12/02 04:31:32;;;;;;;466.30;431.50;;;3.50;43.60;;;;;;5077816;28;20528;-69
2022/12/02 04:33:57;;;;;;;350.43;319.47;;;3.50;43.00;;;;;;5091304;28;20204;-69
2022/12/02 04:36:23;;;;;;;559.33;517.17;;;3.60;44.10;;;;;;5091625;28;20173;-70
2022/12/02 04:38:48;;;;;;;609.93;565.77;;;3.60;43.70;;;;;;5091113;28;20190;-69
2022/12/02 04:41:14;;;;;;;510.67;470.13;;;3.70;43.60;;;;;;5091317;28;20663;-69
2022/12/02 04:43:40;;;;;;;451.97;417.43;;;3.60;44.10;;;;;;5073010;28;20241;-69
2022/12/02 04:46:05;;;;;;;542.03;505.30;;;3.70;42.70;;;;;;5073088;28;20211;-68
2022/12/02 04:48:31;;;;;;;718.77;664.40;;;3.70;43.40;;;;;;5091050;28;20962;-69
2022/12/02 04:50:56;;;;;;;288.70;263.73;;;3.70;42.60;;;;;;5092202;28;20193;-69
2022/12/02 04:53:22;;;;;;;255.50;232.93;;;3.80;42.20;;;;;;5079428;28;20193;-69
2022/12/02 04:55:47;;;;;;;445.00;410.37;;;3.80;42.40;;;;;;5056453;28;20307;-69
2022/12/02 04:58:13;;;;;;;563.50;522.63;;;3.80;42.50;;;;;;5074295;28;20266;-69
2022/12/02 05:00:39;;;;;;;623.27;577.43;;;3.70;41.30;;;;;;5074460;28;20204;-69
2022/12/02 05:03:04;;;;;;;287.70;263.00;;;3.80;41.20;;;;;;5056552;28;20238;-69
2022/12/02 05:05:30;;;;;;;210.00;192.30;;;3.80;40.80;;;;;;5074545;28;20246;-69
2022/12/02 05:07:56;;;;;;;588.13;545.80;;;3.90;41.70;;;;;;5074426;28;20200;-70
2022/12/02 05:10:21;;;;;;;454.27;418.67;;;3.90;39.80;;;;;;5074341;28;20446;-70
2022/12/02 05:12:47;;;;;;;552.03;511.23;;;3.90;40.30;;;;;;5073779;28;20188;-70
2022/12/02 05:15:13;;;;;;;550.17;509.13;;;3.80;39.70;;;;;;5074334;28;20223;-70
2022/12/02 05:17:39;;;;;;;479.47;445.33;;;3.80;40.80;;;;;;5074242;28;20179;-70
2022/12/02 05:20:05;;;;;;;285.77;261.23;;;3.80;41.00;;;;;;5074185;28;20435;-71
2022/12/02 05:22:30;;;;;;;510.50;473.30;;;3.80;41.50;;;;;;5073855;28;20264;-70
2022/12/02 05:24:56;;;;;;;433.23;400.60;;;3.80;40.90;;;;;;5074116;28;20260;-70
2022/12/02 05:27:21;;;;;;;271.43;249.50;;;3.70;41.00;;;;;;5073981;28;20187;-70
2022/12/02 05:29:47;;;;;;;651.93;604.13;;;3.80;42.00;;;;;;5074010;28;20201;-70
2022/12/02 05:32:12;;;;;;;191.20;171.87;;;3.90;41.40;;;;;;5085940;28;20642;-70
2022/12/02 05:34:38;;;;;;;386.80;356.00;;;3.90;40.70;;;;;;5094023;28;20204;-70
2022/12/02 05:37:04;;;;;;;688.23;638.50;;;3.90;40.00;;;;;;5093952;28;20542;-70
2022/12/02 05:39:29;;;;;;;472.13;439.30;;;4.00;39.80;;;;;;5094292;28;20194;-69
2022/12/02 05:42:00;;;;;;;567.87;526.33;;;4.00;39.50;;;;;;5093754;28;20208;-69
2022/12/02 05:44:27;;;;;;;277.40;253.37;;;4.00;39.10;;;;;;5094091;28;20175;-69
2022/12/02 05:47:00;;;;;;;594.93;553.97;;;4.00;39.10;;;;;;5094067;28;20439;-69
2022/12/02 05:49:25;;;;;;;474.85;442.90;;;4.00;39.40;;;;;;5093690;28;20458;-70
2022/12/02 05:51:59;;;;;;;520.27;482.77;;;4.00;39.80;;;;;;5093641;28;20241;-70
2022/12/02 05:54:26;;;;;;;349.73;322.07;;;4.00;39.10;;;;;;5093516;28;20235;-70
2022/12/02 05:56:52;;;;;;;542.67;502.80;;;4.10;38.70;;;;;;5093670;28;20414;-70
2022/12/02 05:59:20;;;;;;;487.47;453.57;;;4.10;38.60;;;;;;5093556;28;20808;-71
2022/12/02 06:01:51;;;;;;;446.53;411.73;;;3.90;38.00;;;;;;5092867;28;20809;-70
2022/12/02 06:04:24;;;;;;;535.57;495.87;;;3.90;38.90;;;;;;5075171;28;20994;-71
2022/12/02 06:06:53;;;;;;;528.17;489.60;;;3.90;39.50;;;;;;5075495;28;20419;-70
2022/12/02 06:09:24;;;;;;;471.30;439.83;;;3.90;39.50;;;;;;5093264;28;20454;-70
2022/12/02 06:11:49;;;;;;;467.27;435.67;;;4.00;39.50;;;;;;5093212;28;20425;-70
2022/12/02 06:14:21;;;;;;;495.37;456.20;;;4.10;39.40;;;;;;5092995;28;20519;-70
2022/12/02 06:16:52;;;;;;;412.70;380.77;;;4.10;38.20;;;;;;5080268;28;20668;-71
2022/12/02 06:19:35;;;;;;;595.97;553.00;;;4.10;38.10;;;;;;5073368;28;20455;-70
2022/12/02 06:22:01;;;;;;;457.20;424.10;;;4.10;37.40;;;;;;5072831;28;20419;-70
2022/12/02 06:24:28;;;;;;;623.33;579.20;;;4.00;37.30;;;;;;5073076;28;20408;-69
2022/12/02 06:26:59;;;;;;;594.60;550.37;;;3.90;38.60;;;;;;5054997;28;20491;-69
2022/12/02 06:29:27;;;;;;;511.50;474.00;;;4.00;39.50;;;;;;5054848;28;20495;-69
2022/12/02 06:31:55;;;;;;;241.60;218.10;;;4.00;38.10;;;;;;5072336;28;20475;-70
2022/12/02 06:34:34;;;;;;;505.70;468.00;;;4.00;37.50;;;;;;5072738;28;20455;-70
2022/12/02 06:37:09;;;;;;;553.73;513.97;;;4.10;38.50;;;;;;5054720;28;20414;-70
2022/12/02 06:39:36;;;;;;;120.60;98.57;;;4.10;37.80;;;;;;5072896;28;20509;-70
2022/12/02 06:42:13;;;;;;;472.33;436.30;;;4.10;39.00;;;;;;5054330;28;20441;-70
2022/12/02 06:47:35;;;;;;;502.57;466.50;;;4.30;37.60;;;;;;5072611;28;20457;-69
2022/12/02 06:50:03;;;;;;;610.93;567.43;;;4.20;36.50;;;;;;5058491;28;20525;-69
2022/12/02 06:52:33;;;;;;;529.27;492.53;;;4.10;37.40;;;;;;5087393;28;20476;-69
2022/12/02 06:54:59;;;;;;;679.27;631.70;;;4.00;37.30;;;;;;5073344;28;20448;-68
2022/12/02 06:57:25;;;;;;;424.90;396.70;;;4.10;37.40;;;;;;5074204;28;20421;-69
2022/12/02 06:59:51;;;;;;;510.97;473.63;;;4.20;37.50;;;;;;5078194;28;20432;-68
2022/12/02 07:02:29;;;;;;;411.43;379.37;;;4.20;37.50;;;;;;5064305;28;20460;-68
2022/12/02 07:04:56;;;;;;;511.53;472.03;;;4.00;37.30;;;;;;5074460;28;20175;-68
2022/12/02 07:07:22;;;;;;;410.13;376.33;;;4.00;37.30;;;;;;5054415;28;20471;-68
2022/12/02 07:09:56;;;;;;;652.53;604.13;;;3.90;38.40;;;;;;5054235;28;20446;-69
2022/12/02 07:12:31;;;;;;;714.10;663.22;;;4.00;38.50;;;;;;5071953;28;20831;-69
2022/12/02 07:15:01;;;;;;;497.37;459.87;;;4.00;38.60;;;;;;5083323;28;20298;-69
2022/12/02 07:17:30;;;;;;;489.63;455.73;;;3.90;37.60;;;;;;5070849;28;20698;-68
2022/12/02 07:20:26;;;;;;;483.90;451.40;;;3.90;38.60;;;;;;5088856;28;20207;-69
2022/12/02 07:22:57;;;;;;;478.03;446.83;;;4.00;39.10;;;;;;5086394;28;20429;-69
2022/12/02 07:25:35;;;;;;;630.90;584.25;;;4.10;38.50;;;;;;5092096;28;20818;-69
2022/12/02 07:28:13;;;;;;;408.70;376.30;;;4.20;38.30;;;;;;5086090;28;20272;-69
2022/12/02 07:30:40;;;;;;;590.70;550.07;;;4.10;37.40;;;;;;5072847;28;20444;-69
2022/12/02 07:33:06;;;;;;;614.63;571.80;;;4.10;38.30;;;;;;5053723;28;20459;-69
2022/12/02 07:35:31;;;;;;;476.60;443.47;;;3.90;38.60;;;;;;5071776;28;20479;-70
2022/12/02 07:37:57;;;;;;;570.80;532.30;;;4.10;38.70;;;;;;5053833;28;20553;-68
2022/12/02 07:40:23;;;;;;;535.07;496.53;;;4.00;38.30;;;;;;5087956;28;20203;-69
2022/12/02 07:42:49;;;;;;;165.63;148.80;;;4.10;39.00;;;;;;5073517;28;20416;-69
2022/12/02 07:45:18;;;;;;;414.30;384.07;;;4.00;39.10;;;;;;5092106;28;20414;-69
2022/12/02 07:47:44;;;;;;;625.50;579.90;;;4.00;39.10;;;;;;5092040;28;20905;-70
2022/12/02 07:50:11;;;;;;;693.10;643.20;;;4.10;38.90;;;;;;5077266;28;20750;-69
2022/12/02 07:52:37;;;;;;;395.77;368.00;;;4.00;38.70;;;;;;5071903;28;20772;-69
2022/12/02 07:55:03;;;;;;;707.27;655.10;;;4.10;40.30;;;;;;5072993;28;20492;-70
2022/12/02 07:57:28;;;;;;;620.40;578.53;;;4.20;39.00;;;;;;5071632;28;20177;-69
2022/12/02 07:59:54;;;;;;;655.73;607.33;;;4.30;38.10;;;;;;5071561;28;20431;-69
2022/12/02 08:02:20;;;;;;;326.13;298.53;;;4.30;37.50;;;;;;5071295;28;20172;-69
2022/12/02 08:04:45;;;;;;;432.93;399.00;;;4.30;37.50;;;;;;5083738;28;20387;-69
2022/12/02 08:07:11;;;;;;;560.77;520.00;;;4.30;37.50;;;;;;5091660;28;20179;-69
2022/12/02 08:09:37;;;;;;;325.93;299.70;;;4.20;37.50;;;;;;5074155;28;20244;-70
2022/12/02 08:12:03;;;;;;;540.03;499.43;;;4.30;37.70;;;;;;5071149;28;20181;-70
2022/12/02 08:14:28;;;;;;;543.67;504.77;;;4.30;37.50;;;;;;5059997;28;20244;-69
2022/12/02 08:16:54;;;;;;;318.33;290.87;;;4.30;37.50;;;;;;5063084;28;20612;-70
2022/12/02 08:19:19;;;;;;;333.47;306.57;;;4.30;37.50;;;;;;5071279;28;20206;-69
2022/12/02 08:21:45;;;;;;;584.00;541.57;;;4.30;37.50;;;;;;5071498;28;20671;-70
2022/12/02 08:24:10;;;;;;;494.03;456.23;;;4.30;37.00;;;;;;5091366;28;20191;-69
2022/12/02 08:26:36;;;;;;;629.50;584.40;;;4.30;37.60;;;;;;5088473;28;20393;-69
2022/12/02 08:29:02;;;;;;;531.17;493.23;;;4.30;37.60;;;;;;5071390;28;20858;-69
2022/12/02 08:31:28;;;;;;;562.53;522.10;;;4.20;37.50;;;;;;5070616;28;20548;-70
2022/12/02 08:33:54;;;;;;;281.97;258.70;;;4.30;37.70;;;;;;5089000;28;20454;-70
2022/12/02 08:36:20;;;;;;;482.90;448.17;;;4.30;37.60;;;;;;5066837;28;20450;-69
2022/12/02 08:38:47;;;;;;;531.73;492.03;;;4.20;37.50;;;;;;5041171;28;20235;-69
2022/12/02 08:41:13;;;;;;;497.93;458.87;;;4.20;37.50;;;;;;5064288;28;20438;-70
2022/12/02 08:43:39;;;;;;;395.90;366.87;;;4.20;38.30;;;;;;5065785;28;20466;-69
2022/12/02 08:46:05;;;;;;;336.47;308.40;;;4.30;37.50;;;;;;5069784;28;20419;-69
2022/12/02 08:48:31;;;;;;;371.03;341.77;;;4.40;37.70;;;;;;5067196;28;20198;-70
2022/12/02 08:50:56;;;;;;;549.97;510.30;;;4.60;37.20;;;;;;5070635;28;20431;-69
2022/12/02 08:53:22;;;;;;;622.80;578.27;;;4.60;36.80;;;;;;5068086;28;20235;-69
2022/12/02 08:55:48;;;;;;;505.80;472.87;;;4.70;36.90;;;;;;5067247;28;20213;-69
2022/12/02 08:58:13;;;;;;;459.93;425.77;;;4.60;37.00;;;;;;5071721;28;20186;-72
2022/12/02 09:00:39;;;;;;;305.37;280.43;;;4.70;35.80;;;;;;5056270;28;20205;-70
2022/12/02 09:03:09;;;;;;;376.27;347.23;;;4.80;35.70;;;;;;5056419;28;20189;-69
2022/12/02 09:05:36;;;;;;;520.50;480.73;;;4.90;34.10;;;;;;5074313;28;20918;-70
2022/12/02 09:08:03;;;;;;;440.60;406.47;;;4.80;34.00;;;;;;5074052;28;20506;-68
2022/12/02 09:10:29;;;;;;;305.50;283.87;;;4.90;33.10;;;;;;5116491;22;20872;-70
2022/12/02 09:12:55;;;;;;;477.77;441.57;;;4.90;33.40;;;;;;5114062;28;20405;-70
2022/12/02 09:15:20;;;;;;;785.40;726.83;;;4.90;34.30;;;;;;5113719;28;20453;-70
2022/12/02 09:17:47;;;;;;;325.40;298.93;;;5.00;33.00;;;;;;5076213;28;20177;-70
2022/12/02 09:20:13;;;;;;;650.67;602.53;;;5.10;31.70;;;;;;5090616;28;20196;-70
2022/12/02 09:22:39;;;;;;;650.07;604.23;;;5.10;32.50;;;;;;5091761;28;20408;-71
2022/12/02 09:25:05;;;;;;;622.37;578.53;;;5.20;32.20;;;;;;5093133;28;20751;-70
2022/12/02 09:27:31;;;;;;;494.70;456.57;;;5.30;31.10;;;;;;5094082;28;20186;-70
2022/12/02 09:29:57;;;;;;;379.23;351.43;;;5.40;31.30;;;;;;5093799;28;20444;-70
2022/12/02 09:32:23;;;;;;;576.43;533.20;;;5.40;31.50;;;;;;5093619;28;20430;-70
2022/12/02 09:34:48;;;;;;;567.60;525.27;;;5.60;30.00;;;;;;5093170;28;20687;-70
2022/12/02 09:37:14;;;;;;;536.90;501.03;;;5.60;30.40;;;;;;5093831;28;20226;-71
2022/12/02 09:39:40;;;;;;;404.37;374.07;;;5.70;29.80;;;;;;5094256;28;20208;-70
2022/12/02 09:42:07;;;;;;;115.97;94.33;;;5.60;28.80;;;;;;5093408;28;20260;-71
2022/12/02 09:44:36;;;;;;;590.00;546.07;;;5.60;28.80;;;;;;5094455;28;20188;-70
2022/12/02 09:47:02;;;;;;;614.23;571.77;;;5.70;28.80;;;;;;5094126;28;20420;-71
2022/12/02 09:49:27;;;;;;;555.27;514.10;;;5.70;28.70;;;;;;5092817;28;20441;-71
2022/12/02 09:51:58;;;;;;;527.27;487.87;;;5.60;28.80;;;;;;5093290;28;20188;-71
2022/12/02 09:54:24;;;;;;;524.27;488.03;;;5.80;28.60;;;;;;5093269;28;20205;-71
2022/12/02 09:56:49;;;;;;;294.07;270.37;;;5.80;28.50;;;;;;5093689;28;20419;-71
2022/12/02 09:59:16;;;;;;;267.50;246.40;;;5.90;28.60;;;;;;5093591;28;20172;-70
2022/12/02 10:01:44;;;;;;;568.80;529.00;;;5.90;27.70;;;;;;5093496;28;20648;-70
2022/12/02 10:04:13;;;;;;;539.07;499.03;;;5.90;27.90;;;;;;5093486;28;20432;-70
2022/12/02 10:06:40;;;;;;;572.00;529.90;;;6.00;27.90;;;;;;5092192;28;20419;-70
2022/12/02 10:09:09;;;;;;;397.00;367.07;;;5.90;27.50;;;;;;5092988;28;20423;-70
2022/12/02 10:11:35;;;;;;;595.23;552.80;;;5.90;28.00;;;;;;5091761;28;20885;-70
2022/12/02 10:14:03;;;;;;;351.53;323.40;;;5.90;28.10;;;;;;5093518;28;20479;-70
2022/12/02 10:16:29;;;;;;;473.70;443.07;;;6.10;27.30;;;;;;5087977;28;20438;-70
2022/12/02 10:19:02;;;;;;;304.50;279.90;;;6.10;26.30;;;;;;5074463;28;20499;-71
2022/12/02 10:21:28;;;;;;;528.70;491.60;;;6.00;26.80;;;;;;5093094;28;20173;-71
2022/12/02 10:24:03;;;;;;;389.50;361.50;;;6.10;26.10;;;;;;5093075;28;20411;-70
2022/12/02 10:26:47;;;;;;;697.00;647.50;;;5.90;26.60;;;;;;5093279;28;20415;-71
2022/12/02 10:29:16;;;;;;;579.83;540.33;;;6.00;26.40;;;;;;5092853;28;20423;-70
2022/12/02 10:31:58;;;;;;;223.33;203.87;;;5.90;26.10;;;;;;5092429;28;20430;-71
2022/12/02 10:34:25;;;;;;;473.27;436.63;;;5.80;26.60;;;;;;5092800;28;20527;-70
2022/12/02 10:36:52;;;;;;;523.17;486.37;;;5.70;27.00;;;;;;5093214;28;20415;-70
2022/12/02 10:39:21;;;;;;;437.70;408.00;;;5.80;27.20;;;;;;5093126;28;20790;-70
2022/12/02 10:41:48;;;;;;;299.40;275.83;;;5.80;27.00;;;;;;5092581;28;20419;-71
2022/12/02 10:44:19;;;;;;;315.00;287.93;;;5.80;27.30;;;;;;5091919;28;20510;-70
2022/12/02 10:46:45;;;;;;;416.00;387.90;;;5.80;27.00;;;;;;5091871;28;20442;-71
2022/12/02 10:49:29;;;;;;;534.00;496.83;;;5.80;27.60;;;;;;5092261;28;20793;-70
2022/12/02 10:51:59;;;;;;;365.30;335.47;;;5.80;27.70;;;;;;5092507;28;20506;-71
2022/12/02 10:54:28;;;;;;;166.07;150.90;;;5.90;28.00;;;;;;5088985;28;20448;-71
2022/12/02 10:56:55;;;;;;;281.37;259.33;;;6.00;26.90;;;;;;5072378;28;20923;-71
2022/12/02 10:59:22;;;;;;;556.47;518.03;;;5.90;26.30;;;;;;5082845;28;20435;-71
2022/12/02 11:01:48;;;;;;;550.57;511.13;;;5.90;27.10;;;;;;5092234;28;20427;-70
2022/12/02 11:04:14;;;;;;;526.33;487.13;;;5.80;27.50;;;;;;5091192;28;20419;-71
2022/12/02 11:06:42;;;;;;;277.43;254.47;;;5.90;27.50;;;;;;5092542;28;20226;-70
2022/12/02 11:09:19;;;;;;;674.93;627.03;;;5.80;27.60;;;;;;5091370;28;20423;-71
2022/12/02 11:11:45;;;;;;;570.43;530.10;;;5.70;27.80;;;;;;5090406;28;20856;-70
2022/12/02 11:14:39;;;;;;;575.77;533.17;;;5.60;28.40;;;;;;5092287;28;20497;-70
2022/12/02 11:17:10;;;;;;;440.70;412.03;;;5.40;28.50;;;;;;5091674;28;20180;-71
2022/12/02 11:19:36;;;;;;;417.03;388.03;;;5.20;28.50;;;;;;5077302;28;20464;-71
2022/12/02 11:22:03;;;;;;;669.93;621.63;;;5.30;28.80;;;;;;5072733;28;20416;-71
2022/12/02 11:24:28;;;;;;;535.33;496.30;;;5.10;29.30;;;;;;5090916;28;20849;-71
2022/12/02 11:27:01;;;;;;;515.87;475.97;;;5.20;29.90;;;;;;5092488;28;20407;-70
2022/12/02 11:29:34;;;;;;;477.60;442.00;;;5.20;29.70;;;;;;5091122;28;20679;-71
2022/12/02 11:32:38;;;;;;;343.47;317.13;;;5.00;29.50;;;;;;5091871;28;20514;-70
2022/12/02 11:35:11;;;;;;;392.90;363.80;;;5.00;29.80;;;;;;5083709;28;20811;-70
2022/12/02 11:37:40;;;;;;;611.70;569.70;;;4.90;29.90;;;;;;5070558;28;20420;-71
2022/12/02 11:40:25;;;;;;;610.27;567.73;;;4.90;29.80;;;;;;5071737;28;20432;-70
2022/12/02 11:42:51;;;;;;;524.40;485.10;;;4.80;30.50;;;;;;5070066;28;20980;-70
2022/12/02 11:45:17;;;;;;;558.73;519.93;;;4.80;31.50;;;;;;5071858;28;20412;-70
2022/12/02 11:47:58;;;;;;;423.67;392.57;;;4.80;31.40;;;;;;5070254;28;20612;-70
2022/12/02 11:50:29;;;;;;;315.03;290.23;;;4.70;31.60;;;;;;5071527;28;20241;-70
2022/12/02 11:53:16;;;;;;;353.77;326.57;;;4.60;32.00;;;;;;5071273;28;20419;-70
2022/12/02 11:55:45;;;;;;;336.63;311.43;;;4.60;32.70;;;;;;5071758;28;20549;-70
2022/12/02 11:58:25;;;;;;;507.97;472.60;;;4.60;32.60;;;;;;5071634;28;20415;-70
2022/12/02 12:01:14;;;;;;;598.97;558.67;;;4.60;32.60;;;;;;5072448;28;20507;-70
2022/12/02 12:03:44;;;;;;;435.60;404.47;;;4.60;32.60;;;;;;5075696;28;20422;-70
2022/12/02 12:06:14;;;;;;;632.90;590.47;;;4.50;33.80;;;;;;5074350;28;20836;-70
2022/12/02 12:08:47;;;;;;;458.37;426.63;;;4.60;33.90;;;;;;5075573;28;20403;-70
2022/12/02 12:11:27;;;;;;;513.53;476.63;;;4.60;34.60;;;;;;5080518;28;20481;-70
2022/12/02 12:14:01;;;;;;;424.23;393.23;;;4.60;34.10;;;;;;5095587;28;20738;-68
2022/12/02 12:16:31;;;;;;;559.53;520.77;;;4.60;33.80;;;;;;5090431;28;20799;-72
2022/12/02 12:18:58;;;;;;;494.77;459.90;;;4.50;33.40;;;;;;5084052;28;20419;-70
2022/12/02 12:21:30;;;;;;;698.47;649.73;;;4.50;33.80;;;;;;5095100;28;20450;-70
2022/12/02 12:24:19;;;;;;;568.87;526.50;;;4.50;33.90;;;;;;5095188;28;20418;-70
2022/12/02 12:26:46;;;;;;;407.23;376.77;;;4.60;34.20;;;;;;5094995;28;20828;-69
2022/12/02 12:29:12;;;;;;;469.60;435.27;;;4.70;34.00;;;;;;5094209;28;20427;-70